createdAt,value
2022-08-28T00:01:41.517Z,3.33
2022-08-28T00:04:43.323Z,3.05
2022-08-28T00:07:47.786Z,3.13
2022-08-28T00:10:50.049Z,3.33
2022-08-28T00:13:51.929Z,2.80
2022-08-28T00:16:54.709Z,2.83
2022-08-28T00:19:56.387Z,3.08
2022-08-28T00:23:00.308Z,3.15
2022-08-28T00:26:02.283Z,3.33
2022-08-28T00:29:06.071Z,2.83
2022-08-28T00:32:08.868Z,3.00
2022-08-28T00:35:11.435Z,3.00
2022-08-28T00:38:14.157Z,3.05
2022-08-28T00:41:16.839Z,3.13
2022-08-28T00:44:28.930Z,3.33
2022-08-28T00:47:30.676Z,3.40
2022-08-28T00:50:54.422Z,3.40
2022-08-28T00:54:07.346Z,3.15
2022-08-28T00:57:13.283Z,3.13
2022-08-28T01:00:23.104Z,3.20
2022-08-28T01:03:26.577Z,3.67
2022-08-28T01:06:28.467Z,3.13
2022-08-28T01:09:31.949Z,3.22
2022-08-28T01:12:35.040Z,3.47
2022-08-28T01:15:38.562Z,3.50
2022-08-28T01:18:42.007Z,3.40
2022-08-28T01:21:55.408Z,3.15
2022-08-28T01:24:59.441Z,2.83
2022-08-28T01:28:03.467Z,3.03
2022-08-28T01:31:05.429Z,2.60
2022-08-28T01:34:10.465Z,3.28
2022-08-28T01:37:12.291Z,2.83
2022-08-28T01:40:20.411Z,2.75
2022-08-28T01:43:24.279Z,2.70
2022-08-28T01:46:26.098Z,3.30
2022-08-28T01:49:29.501Z,2.78
2022-08-28T01:52:31.521Z,3.42
2022-08-28T01:55:35.839Z,2.78
2022-08-28T01:58:39.551Z,3.17
2022-08-28T02:01:42.558Z,3.47
2022-08-28T02:04:48.051Z,2.92
2022-08-28T02:07:50.896Z,3.53
2022-08-28T02:10:52.950Z,3.28
2022-08-28T02:13:54.658Z,3.30
2022-08-28T02:16:58.304Z,2.80
2022-08-28T02:20:00.250Z,3.42
2022-08-28T02:23:02.721Z,3.67
2022-08-28T02:26:04.316Z,4.47
2022-08-28T02:29:06.440Z,3.17
2022-08-28T02:32:08.217Z,3.05
2022-08-28T02:35:13.253Z,3.00
2022-08-28T02:38:14.911Z,3.65
2022-08-28T02:41:16.874Z,4.00
2022-08-28T02:44:18.672Z,3.33
2022-08-28T02:47:20.714Z,3.05
2022-08-28T02:50:24.064Z,3.00
2022-08-28T02:53:25.629Z,2.95
2022-08-28T02:56:27.729Z,3.00
2022-08-28T02:59:30.323Z,3.40
2022-08-28T03:02:32.414Z,3.08
2022-08-28T03:05:34.177Z,3.42
2022-08-28T03:08:35.991Z,3.13
2022-08-28T03:11:38.011Z,3.08
2022-08-28T03:14:39.914Z,3.20
2022-08-28T03:17:41.984Z,3.10
2022-08-28T03:20:44.889Z,3.20
2022-08-28T03:23:47.346Z,3.50
2022-08-28T03:26:48.994Z,3.30
2022-08-28T03:29:50.681Z,3.15
2022-08-28T03:32:52.886Z,3.13
2022-08-28T03:35:55.613Z,2.92
2022-08-28T03:39:00.517Z,3.38
2022-08-28T03:42:02.139Z,3.35
2022-08-28T03:45:06.703Z,3.58
2022-08-28T03:48:08.393Z,3.03
2022-08-28T03:51:14.321Z,3.13
2022-08-28T03:54:17.048Z,3.50
2022-08-28T03:57:23.089Z,2.97
2022-08-28T04:00:24.963Z,3.25
2022-08-28T04:03:26.702Z,2.83
2022-08-28T04:06:29.012Z,3.38
2022-08-28T04:09:30.729Z,3.20
2022-08-28T04:12:35.236Z,2.95
2022-08-28T04:15:37.381Z,3.17
2022-08-28T04:18:41.491Z,3.20
2022-08-28T04:21:43.083Z,2.95
2022-08-28T04:24:45.946Z,3.25
2022-08-28T04:27:48.642Z,3.55
2022-08-28T04:30:56.267Z,3.20
2022-08-28T04:33:59.390Z,3.13
2022-08-28T04:37:01.033Z,3.08
2022-08-28T04:40:07.852Z,2.95
2022-08-28T04:43:09.794Z,2.72
2022-08-28T04:46:14.863Z,2.80
2022-08-28T04:49:17.004Z,3.22
2022-08-28T04:52:18.722Z,3.60
2022-08-28T04:55:33.823Z,3.10
2022-08-28T04:58:44.174Z,3.03
2022-08-28T05:01:46.652Z,2.83
2022-08-28T05:04:48.434Z,3.60
2022-08-28T05:07:50.544Z,3.45
2022-08-28T05:10:53.133Z,2.90
2022-08-28T05:13:55.935Z,3.38
2022-08-28T05:16:58.489Z,3.28
2022-08-28T05:20:00.078Z,3.25
2022-08-28T05:23:01.682Z,3.08
2022-08-28T05:26:03.592Z,2.70
2022-08-28T05:29:05.636Z,3.20
2022-08-28T05:32:07.472Z,3.47
2022-08-28T05:35:09.313Z,2.83
2022-08-28T05:38:12.910Z,3.08
2022-08-28T05:41:23.123Z,3.08
2022-08-28T05:44:24.945Z,3.33
2022-08-28T05:47:26.623Z,3.33
2022-08-28T05:50:28.280Z,3.22
2022-08-28T05:53:30.276Z,2.92
2022-08-28T05:56:35.774Z,2.50
2022-08-28T05:59:37.749Z,2.97
2022-08-28T06:02:44.501Z,2.50
2022-08-28T06:05:46.188Z,2.65
2022-08-28T06:08:58.639Z,2.80
2022-08-28T06:12:02.742Z,3.08
2022-08-28T06:15:05.578Z,2.70
2022-08-28T06:18:07.213Z,3.10
2022-08-28T06:21:09.258Z,2.65
2022-08-28T06:24:12.037Z,2.83
2022-08-28T06:27:13.815Z,2.50
2022-08-28T06:30:15.727Z,2.83
2022-08-28T06:33:18.519Z,2.40
2022-08-28T06:36:20.137Z,2.63
2022-08-28T06:39:23.152Z,2.35
2022-08-28T06:42:25.372Z,2.50
2022-08-28T06:45:27.597Z,2.70
2022-08-28T06:48:29.361Z,2.22
2022-08-28T06:51:31.112Z,2.72
2022-08-28T06:54:32.933Z,2.22
2022-08-28T06:57:34.758Z,2.25
2022-08-28T07:00:37.216Z,2.45
2022-08-28T07:03:44.077Z,2.40
2022-08-28T07:06:53.821Z,2.92
2022-08-28T07:09:56.389Z,3.00
2022-08-28T07:13:00.610Z,2.90
2022-08-28T07:16:03.040Z,3.00
2022-08-28T07:19:10.441Z,2.65
2022-08-28T07:22:12.547Z,2.30
2022-08-28T07:25:14.167Z,2.58
2022-08-28T07:28:17.075Z,2.42
2022-08-28T07:31:22.970Z,2.42
2022-08-28T07:34:27.167Z,2.45
2022-08-28T07:37:29.063Z,2.58
2022-08-28T07:40:31.609Z,2.50
2022-08-28T07:43:51.582Z,2.78
2022-08-28T07:46:55.021Z,2.30
2022-08-28T07:49:57.708Z,2.42
2022-08-28T07:52:59.825Z,2.92
2022-08-28T07:56:01.797Z,2.30
2022-08-28T07:59:03.854Z,2.78
2022-08-28T08:02:06.926Z,2.63
2022-08-28T08:05:10.371Z,2.20
2022-08-28T08:08:16.064Z,2.20
2022-08-28T08:11:18.797Z,2.10
2022-08-28T08:14:21.391Z,2.47
2022-08-28T08:17:23.116Z,1.92
2022-08-28T08:20:24.942Z,2.58
2022-08-28T08:23:26.839Z,2.00
2022-08-28T08:26:29.676Z,2.15
2022-08-28T08:29:35.969Z,2.13
2022-08-28T08:32:40.078Z,2.13
2022-08-28T08:35:42.043Z,2.33
2022-08-28T08:38:44.777Z,1.52
2022-08-28T08:41:53.648Z,1.85
2022-08-28T08:44:59.074Z,2.20
2022-08-28T08:48:01.309Z,2.00
2022-08-28T08:51:19.799Z,1.80
2022-08-28T08:54:22.018Z,1.60
2022-08-28T08:57:24.921Z,2.20
2022-08-28T09:00:28.071Z,1.90
2022-08-28T09:03:57.264Z,2.03
2022-08-28T09:07:21.199Z,2.65
2022-08-28T09:10:24.981Z,1.80
2022-08-28T09:14:05.446Z,2.17
2022-08-28T09:17:08.581Z,1.88
2022-08-28T09:20:15.501Z,2.20
2022-08-28T09:23:17.796Z,1.95
2022-08-28T09:26:25.415Z,1.85
2022-08-28T09:29:45.008Z,1.80
2022-08-28T09:33:00.898Z,2.10
2022-08-28T09:36:32.072Z,1.85
2022-08-28T09:39:35.957Z,2.28
2022-08-28T09:42:56.493Z,1.90
2022-08-28T09:46:16.592Z,1.83
2022-08-28T09:49:31.092Z,1.75
2022-08-28T09:52:34.252Z,2.00
2022-08-28T09:55:54.898Z,1.77
2022-08-28T09:59:02.294Z,2.08
2022-08-28T10:02:37.286Z,1.98
2022-08-28T10:05:52.168Z,2.08
2022-08-28T10:09:22.575Z,2.33
2022-08-28T10:12:49.252Z,1.83
2022-08-28T10:16:16.848Z,1.75
2022-08-28T10:19:48.195Z,2.00
2022-08-28T10:23:07.577Z,1.67
2022-08-28T10:26:21.494Z,1.83
2022-08-28T10:29:51.082Z,1.88
2022-08-28T10:33:17.551Z,1.80
2022-08-28T10:36:33.488Z,1.73
2022-08-28T10:40:02.247Z,1.88
2022-08-28T10:43:48.027Z,1.98
2022-08-28T10:46:55.576Z,1.75
2022-08-28T10:50:02.926Z,2.20
2022-08-28T10:53:15.257Z,2.13
2022-08-28T10:56:30.903Z,1.80
2022-08-28T10:59:33.593Z,1.75
2022-08-28T11:02:57.243Z,2.40
2022-08-28T11:06:04.250Z,1.70
2022-08-28T11:09:26.687Z,1.85
2022-08-28T11:12:28.418Z,1.70
2022-08-28T11:15:37.013Z,2.05
2022-08-28T11:18:53.202Z,1.88
2022-08-28T11:22:01.050Z,2.00
2022-08-28T11:25:26.648Z,2.22
2022-08-28T11:28:34.755Z,1.50
2022-08-28T11:31:39.694Z,1.80
2022-08-28T11:34:58.848Z,1.70
2022-08-28T11:38:00.495Z,1.60
2022-08-28T11:41:17.560Z,1.88
2022-08-28T11:44:28.419Z,1.83
2022-08-28T11:47:36.194Z,2.03
2022-08-28T11:51:02.504Z,2.05
2022-08-28T11:54:42.742Z,1.70
2022-08-28T11:58:16.164Z,1.60
2022-08-28T12:01:29.436Z,1.50
2022-08-28T12:04:42.674Z,1.83
2022-08-28T12:07:50.326Z,1.73
2022-08-28T12:10:54.624Z,1.88
2022-08-28T12:13:56.536Z,1.60
2022-08-28T12:17:01.487Z,1.80
2022-08-28T12:20:41.567Z,1.80
2022-08-28T12:23:44.883Z,1.70
2022-08-28T12:26:53.314Z,1.75
2022-08-28T12:30:00.995Z,1.42
2022-08-28T12:33:32.119Z,2.40
2022-08-28T12:36:33.999Z,1.50
2022-08-28T12:39:38.085Z,1.77
2022-08-28T12:43:05.627Z,2.00
2022-08-28T12:46:19.727Z,1.58
2022-08-28T12:49:37.886Z,1.65
2022-08-28T12:52:48.467Z,1.67
2022-08-28T12:55:50.205Z,1.60
2022-08-28T12:58:52.530Z,1.98
2022-08-28T13:01:54.518Z,1.77
2022-08-28T13:05:06.665Z,1.50
2022-08-28T13:08:11.593Z,1.80
2022-08-28T13:11:19.539Z,1.45
2022-08-28T13:14:38.400Z,1.58
2022-08-28T13:17:50.015Z,1.60
2022-08-28T13:20:51.774Z,1.55
2022-08-28T13:23:56.677Z,1.80
2022-08-28T13:27:19.367Z,1.23
2022-08-28T13:30:33.537Z,1.33
2022-08-28T13:33:35.282Z,1.67
2022-08-28T13:36:59.852Z,1.10
2022-08-28T13:40:05.514Z,1.60
2022-08-28T13:43:11.689Z,1.30
2022-08-28T13:46:14.025Z,2.00
2022-08-28T13:49:16.948Z,1.55
2022-08-28T13:52:19.221Z,1.55
2022-08-28T13:55:22.099Z,1.58
2022-08-28T13:58:27.057Z,1.58
2022-08-28T14:01:48.936Z,1.58
2022-08-28T14:04:50.882Z,1.42
2022-08-28T14:07:52.985Z,1.30
2022-08-28T14:10:55.076Z,1.63
2022-08-28T14:13:56.729Z,1.65
2022-08-28T14:16:59.342Z,1.70
2022-08-28T14:20:01.680Z,1.67
2022-08-28T14:23:03.259Z,2.15
2022-08-28T14:26:05.984Z,1.42
2022-08-28T14:29:10.022Z,1.73
2022-08-28T14:32:12.787Z,1.55
2022-08-28T14:35:14.686Z,1.42
2022-08-28T14:38:17.376Z,1.50
2022-08-28T14:41:19.122Z,1.95
2022-08-28T14:44:22.623Z,1.77
2022-08-28T14:47:25.177Z,1.65
2022-08-28T14:50:27.072Z,1.70
2022-08-28T14:53:30.140Z,1.80
2022-08-28T14:56:32.556Z,1.27
2022-08-28T14:59:34.261Z,1.50
2022-08-28T15:02:36.134Z,1.40
2022-08-28T15:05:38.736Z,2.90
2022-08-28T15:08:41.593Z,5.50
2022-08-28T15:11:44.449Z,2.15
2022-08-28T15:14:54.653Z,7.53
2022-08-28T15:17:59.498Z,2.35
2022-08-28T15:21:01.244Z,3.72
2022-08-28T15:24:04.744Z,3.17
2022-08-28T15:27:07.064Z,4.65
2022-08-28T15:30:09.642Z,3.88
2022-08-28T15:33:11.667Z,2.65
2022-08-28T15:36:13.616Z,1.95
2022-08-28T15:39:34.065Z,1.90
2022-08-28T15:42:35.807Z,1.50
2022-08-28T15:45:39.226Z,1.33
2022-08-28T15:48:41.207Z,1.73
2022-08-28T15:51:42.946Z,1.77
2022-08-28T15:54:44.673Z,1.77
2022-08-28T15:57:46.804Z,1.40
2022-08-28T16:00:48.459Z,1.40
2022-08-28T16:03:50.357Z,1.40
2022-08-28T16:07:00.494Z,1.98
2022-08-28T16:10:07.167Z,1.73
2022-08-28T16:13:08.968Z,1.80
2022-08-28T16:16:10.841Z,1.48
2022-08-28T16:19:12.584Z,1.40
2022-08-28T16:22:15.943Z,1.85
2022-08-28T16:25:18.131Z,1.65
2022-08-28T16:28:19.829Z,1.85
2022-08-28T16:31:21.659Z,1.88
2022-08-28T16:34:26.091Z,1.77
2022-08-28T16:37:39.567Z,1.65
2022-08-28T16:40:43.523Z,1.75
2022-08-28T16:43:45.966Z,1.70
2022-08-28T16:46:47.863Z,1.58
2022-08-28T16:49:50.371Z,1.35
2022-08-28T16:52:52.432Z,1.48
2022-08-28T16:55:54.184Z,1.88
2022-08-28T16:58:56.991Z,2.22
2022-08-28T17:01:58.743Z,1.67
2022-08-28T17:05:01.876Z,1.40
2022-08-28T17:08:03.516Z,1.50
2022-08-28T17:11:06.658Z,1.58
2022-08-28T17:14:11.037Z,1.75
2022-08-28T17:17:12.647Z,2.13
2022-08-28T17:20:47.838Z,1.90
2022-08-28T17:23:49.761Z,1.98
2022-08-28T17:26:51.586Z,1.95
2022-08-28T17:29:53.435Z,2.10
2022-08-28T17:32:55.232Z,1.85
2022-08-28T17:35:59.667Z,2.05
2022-08-28T17:39:04.070Z,1.55
2022-08-28T17:42:06.267Z,2.33
2022-08-28T17:45:08.778Z,1.65
2022-08-28T17:48:10.436Z,1.90
2022-08-28T17:51:12.077Z,2.15
2022-08-28T17:54:17.717Z,1.90
2022-08-28T17:57:19.425Z,2.03
2022-08-28T18:00:21.318Z,1.90
2022-08-28T18:03:23.388Z,2.30
2022-08-28T18:06:25.113Z,2.13
2022-08-28T18:09:26.708Z,2.17
2022-08-28T18:12:28.776Z,2.28
2022-08-28T18:15:31.281Z,2.28
2022-08-28T18:18:36.616Z,2.38
2022-08-28T18:21:38.777Z,2.20
2022-08-28T18:24:41.039Z,2.50
2022-08-28T18:27:42.829Z,2.30
2022-08-28T18:30:45.972Z,2.72
2022-08-28T18:33:47.693Z,2.78
2022-08-28T18:36:49.348Z,2.10
2022-08-28T18:39:51.707Z,2.45
2022-08-28T18:42:55.952Z,2.50
2022-08-28T18:46:00.415Z,2.60
2022-08-28T18:49:02.258Z,2.70
2022-08-28T18:52:04.161Z,2.33
2022-08-28T18:55:07.181Z,2.47
2022-08-28T18:58:11.146Z,3.03
2022-08-28T19:01:17.326Z,2.60
2022-08-28T19:04:19.095Z,2.13
2022-08-28T19:07:20.787Z,2.63
2022-08-28T19:10:33.478Z,2.92
2022-08-28T19:13:36.343Z,2.72
2022-08-28T19:16:39.342Z,3.00
2022-08-28T19:19:40.872Z,3.03
2022-08-28T19:22:43.187Z,3.30
2022-08-28T19:28:49.256Z,2.90
2022-08-28T19:31:52.350Z,3.35
2022-08-28T19:34:54.139Z,2.80
2022-08-28T19:37:56.054Z,2.80
2022-08-28T19:40:58.176Z,3.20
2022-08-28T19:43:59.901Z,3.20
2022-08-28T19:47:01.946Z,3.33
2022-08-28T19:50:07.189Z,3.40
2022-08-28T19:53:10.008Z,3.25
2022-08-28T19:56:11.839Z,2.90
2022-08-28T19:59:13.646Z,3.03
2022-08-28T20:02:15.479Z,2.85
2022-08-28T20:05:17.552Z,2.50
2022-08-28T20:08:20.150Z,3.08
2022-08-28T20:11:30.784Z,3.50
2022-08-28T20:14:34.277Z,2.63
2022-08-28T20:17:43.846Z,2.70
2022-08-28T20:20:48.945Z,2.83
2022-08-28T20:23:50.803Z,2.80
2022-08-28T20:26:53.135Z,2.47
2022-08-28T20:29:55.328Z,2.58
2022-08-28T20:32:57.538Z,2.97
2022-08-28T20:36:04.355Z,3.00
2022-08-28T20:39:07.313Z,3.10
2022-08-28T20:42:09.878Z,2.92
2022-08-28T20:45:12.097Z,3.05
2022-08-28T20:48:14.176Z,2.90
2022-08-28T20:51:15.902Z,2.80
2022-08-28T20:54:17.758Z,3.10
2022-08-28T20:57:21.408Z,3.08
2022-08-28T21:00:25.519Z,3.28
2022-08-28T21:03:28.450Z,3.38
2022-08-28T21:06:31.216Z,2.63
2022-08-28T21:10:03.769Z,2.58
2022-08-28T21:12:54.984Z,2.83
2022-08-28T21:15:56.813Z,2.60
2022-08-28T21:19:15.305Z,3.20
2022-08-28T21:22:22.941Z,3.13
2022-08-28T21:25:25.291Z,2.80
2022-08-28T21:28:28.094Z,3.25
2022-08-28T21:31:29.838Z,2.78
2022-08-28T21:34:31.542Z,2.80
2022-08-28T21:37:33.962Z,2.60
2022-08-28T21:40:35.685Z,3.28
2022-08-28T21:43:38.682Z,3.30
2022-08-28T21:46:41.090Z,2.90
2022-08-28T21:49:42.955Z,2.70
2022-08-28T21:52:45.584Z,3.08
2022-08-28T21:55:51.928Z,2.80
2022-08-28T21:58:56.151Z,2.65
2022-08-28T22:01:58.595Z,3.65
2022-08-28T22:05:00.466Z,2.78
2022-08-28T22:08:02.456Z,2.70
2022-08-28T22:11:04.543Z,2.65
2022-08-28T22:14:06.258Z,2.90
2022-08-28T22:17:11.600Z,2.85
2022-08-28T22:20:14.096Z,3.35
2022-08-28T22:23:17.713Z,2.92
2022-08-28T22:26:21.113Z,3.15
2022-08-28T22:29:23.268Z,2.80
2022-08-28T22:32:26.808Z,2.70
2022-08-28T22:35:28.772Z,2.72
2022-08-28T22:38:30.801Z,3.10
2022-08-28T22:41:32.993Z,3.10
2022-08-28T22:44:34.920Z,2.80
2022-08-28T22:47:36.828Z,2.65
2022-08-28T22:50:38.556Z,2.90
2022-08-28T22:53:43.835Z,2.47
2022-08-28T22:56:45.689Z,2.63
2022-08-28T22:59:47.472Z,2.67
2022-08-28T23:02:50.050Z,2.72
2022-08-28T23:05:52.062Z,2.58
2022-08-28T23:08:53.884Z,2.75
2022-08-28T23:11:55.643Z,3.20
2022-08-28T23:15:04.538Z,2.70
2022-08-28T23:18:06.557Z,3.05
2022-08-28T23:21:10.008Z,2.90
2022-08-28T23:24:15.942Z,3.88
2022-08-28T23:27:36.304Z,2.85
2022-08-28T23:33:41.510Z,2.95
2022-08-28T23:36:43.477Z,2.97
2022-08-28T23:39:45.860Z,2.30
2022-08-28T23:42:48.091Z,2.75
2022-08-28T23:45:50.506Z,2.53
2022-08-28T23:48:52.275Z,3.20
2022-08-28T23:51:54.131Z,2.67
2022-08-28T23:54:56.031Z,2.30
2022-08-28T23:57:57.958Z,3.17
